createdAt,value
2019-05-20T00:00:55.109Z,50.99
2019-05-20T00:03:27.852Z,50.86
2019-05-20T00:05:58.726Z,50.80
2019-05-20T00:08:29.476Z,50.78
2019-05-20T00:11:00.378Z,50.33
2019-05-20T00:13:31.073Z,50.08
2019-05-20T00:16:01.599Z,49.56
2019-05-20T00:18:32.449Z,48.99
2019-05-20T00:21:04.498Z,48.91
2019-05-20T00:23:35.142Z,48.53
2019-05-20T00:26:08.097Z,48.08
2019-05-20T00:28:40.254Z,48.08
2019-05-20T00:31:10.840Z,48.34
2019-05-20T00:33:41.588Z,48.32
2019-05-20T00:36:12.203Z,48.68
2019-05-20T00:38:43.032Z,49.02
2019-05-20T00:41:13.608Z,49.30
2019-05-20T00:43:44.286Z,49.20
2019-05-20T00:46:14.883Z,49.69
2019-05-20T00:48:46.594Z,49.93
2019-05-20T00:51:20.196Z,49.86
2019-05-20T00:53:50.935Z,50.01
2019-05-20T00:56:21.547Z,50.14
2019-05-20T00:58:52.059Z,50.45
2019-05-20T01:01:22.663Z,50.72
2019-05-20T01:03:54.880Z,51.01
2019-05-20T01:06:25.700Z,51.34
2019-05-20T01:08:56.278Z,51.45
2019-05-20T01:11:27.306Z,51.26
2019-05-20T01:13:58.327Z,51.33
2019-05-20T01:16:29.048Z,50.96
2019-05-20T01:18:59.797Z,50.47
2019-05-20T01:21:32.505Z,50.61
2019-05-20T01:24:03.269Z,50.61
2019-05-20T01:26:37.406Z,50.51
2019-05-20T01:29:08.061Z,50.27
2019-05-20T01:31:39.004Z,50.30
2019-05-20T01:34:10.103Z,49.99
2019-05-20T01:36:40.768Z,50.30
2019-05-20T01:39:11.596Z,50.25
2019-05-20T01:41:44.115Z,50.47
2019-05-20T01:44:18.771Z,50.47
2019-05-20T01:46:49.784Z,50.91
2019-05-20T01:49:22.314Z,50.68
2019-05-20T01:51:56.167Z,51.37
2019-05-20T01:54:29.910Z,51.46
2019-05-20T01:57:03.167Z,51.59
2019-05-20T01:59:33.876Z,51.64
2019-05-20T02:02:04.926Z,51.97
2019-05-20T02:04:36.407Z,52.14
2019-05-20T02:07:07.434Z,52.10
2019-05-20T02:09:38.454Z,51.97
2019-05-20T02:12:09.330Z,52.44
2019-05-20T02:14:50.697Z,52.47
2019-05-20T02:17:23.236Z,52.39
2019-05-20T02:19:55.497Z,52.60
2019-05-20T02:22:26.335Z,52.32
2019-05-20T02:25:00.421Z,51.96
2019-05-20T02:27:31.005Z,52.15
2019-05-20T02:30:01.720Z,52.21
2019-05-20T02:32:34.611Z,52.42
2019-05-20T02:35:09.542Z,52.48
2019-05-20T02:37:40.301Z,52.05
2019-05-20T02:40:11.973Z,51.50
2019-05-20T02:42:42.771Z,51.43
2019-05-20T02:45:18.244Z,50.67
2019-05-20T02:47:50.447Z,50.48
2019-05-20T02:50:22.561Z,50.58
2019-05-20T02:52:53.386Z,50.50
2019-05-20T02:55:26.908Z,50.54
2019-05-20T02:57:57.750Z,50.95
2019-05-20T03:00:28.398Z,50.66
2019-05-20T03:02:59.278Z,49.82
2019-05-20T03:05:29.926Z,47.14
2019-05-20T03:08:02.214Z,43.72
2019-05-20T03:10:35.835Z,41.11
2019-05-20T03:13:06.604Z,40.07
2019-05-20T03:15:39.496Z,37.68
2019-05-20T03:18:10.342Z,37.75
2019-05-20T03:20:41.057Z,35.86
2019-05-20T03:23:11.670Z,35.43
2019-05-20T03:25:42.219Z,33.61
2019-05-20T03:28:12.839Z,33.04
2019-05-20T03:30:44.337Z,32.74
2019-05-20T03:33:15.086Z,32.57
2019-05-20T03:35:47.214Z,33.62
2019-05-20T03:38:19.025Z,31.69
2019-05-20T03:40:51.925Z,30.79
2019-05-20T03:43:22.589Z,30.79
2019-05-20T03:45:53.318Z,31.50
2019-05-20T03:48:25.508Z,31.34
2019-05-20T03:50:59.246Z,30.48
2019-05-20T03:53:32.865Z,29.97
2019-05-20T03:56:03.572Z,30.62
2019-05-20T03:58:35.677Z,29.95
2019-05-20T04:01:06.250Z,28.99
2019-05-20T04:03:38.395Z,28.35
2019-05-20T04:06:09.027Z,29.50
2019-05-20T04:08:39.859Z,31.11
2019-05-20T04:11:10.445Z,29.25
2019-05-20T04:13:41.347Z,30.06
2019-05-20T04:16:13.607Z,29.23
2019-05-20T04:18:46.845Z,28.62
2019-05-20T04:21:18.112Z,29.03
2019-05-20T04:23:53.592Z,29.33
2019-05-20T04:26:26.525Z,29.09
2019-05-20T04:28:58.885Z,28.73
2019-05-20T04:31:33.498Z,28.57
2019-05-20T04:34:04.282Z,29.01
2019-05-20T04:36:36.438Z,28.27
2019-05-20T04:39:07.549Z,29.29
2019-05-20T04:41:38.167Z,28.08
2019-05-20T04:44:10.673Z,27.17
2019-05-20T04:46:48.215Z,26.72
2019-05-20T04:49:24.930Z,28.26
2019-05-20T04:51:55.717Z,28.59
2019-05-20T04:54:34.203Z,27.37
2019-05-20T04:57:06.538Z,27.80
2019-05-20T04:59:40.284Z,27.65
2019-05-20T05:02:10.906Z,29.21
2019-05-20T05:04:43.075Z,28.95
2019-05-20T05:07:13.832Z,29.27
2019-05-20T05:09:44.635Z,27.70
2019-05-20T05:12:16.999Z,27.89
2019-05-20T05:14:48.126Z,27.87
2019-05-20T05:17:18.907Z,29.50
2019-05-20T05:19:49.664Z,27.83
2019-05-20T05:22:20.472Z,27.35
2019-05-20T05:24:51.089Z,26.59
2019-05-20T05:27:23.080Z,25.83
2019-05-20T05:29:53.687Z,27.79
2019-05-20T05:32:43.913Z,26.24
2019-05-20T05:35:17.565Z,27.14
2019-05-20T05:37:48.658Z,25.81
2019-05-20T05:40:21.846Z,27.72
2019-05-20T05:42:53.073Z,26.54
2019-05-20T05:45:32.011Z,27.65
2019-05-20T05:48:03.462Z,26.76
2019-05-20T05:50:36.399Z,26.32
2019-05-20T05:53:06.988Z,27.36
2019-05-20T05:55:39.257Z,26.44
2019-05-20T05:58:09.892Z,26.44
2019-05-20T06:00:40.525Z,26.51
2019-05-20T06:03:13.331Z,27.00
2019-05-20T06:05:43.626Z,27.40
2019-05-20T06:08:15.390Z,28.20
2019-05-20T06:10:47.019Z,28.04
2019-05-20T06:13:19.195Z,29.10
2019-05-20T06:15:49.799Z,28.55
2019-05-20T06:18:20.404Z,27.48
2019-05-20T06:20:51.155Z,27.67
2019-05-20T06:23:21.847Z,27.01
2019-05-20T06:25:52.986Z,28.37
2019-05-20T06:28:23.608Z,26.48
2019-05-20T06:30:54.201Z,26.67
2019-05-20T06:33:25.455Z,27.30
2019-05-20T06:35:56.784Z,26.70
2019-05-20T06:38:35.464Z,27.57
2019-05-20T06:41:09.372Z,27.30
2019-05-20T06:43:41.703Z,29.73
2019-05-20T06:46:12.325Z,29.14
2019-05-20T06:48:42.930Z,28.42
2019-05-20T06:51:14.929Z,29.26
2019-05-20T06:53:47.212Z,29.20
2019-05-20T06:56:20.243Z,30.68
2019-05-20T06:58:52.326Z,32.52
2019-05-20T07:01:23.097Z,32.70
2019-05-20T07:03:53.919Z,32.82
2019-05-20T07:06:25.002Z,33.45
2019-05-20T07:08:55.677Z,32.96
2019-05-20T07:11:26.263Z,34.87
2019-05-20T07:13:56.961Z,34.59
2019-05-20T07:16:27.675Z,34.41
2019-05-20T07:18:58.333Z,34.36
2019-05-20T07:21:28.998Z,34.36
2019-05-20T07:23:59.578Z,33.11
2019-05-20T07:26:30.163Z,33.52
2019-05-20T07:29:00.880Z,33.51
2019-05-20T07:31:31.495Z,33.59
2019-05-20T07:34:02.205Z,33.32
2019-05-20T07:36:32.920Z,33.20
2019-05-20T07:39:04.190Z,33.79
2019-05-20T07:41:34.864Z,33.22
2019-05-20T07:44:05.754Z,31.88
2019-05-20T07:46:36.507Z,31.88
2019-05-20T07:49:07.732Z,31.89
2019-05-20T07:51:40.286Z,31.54
2019-05-20T07:54:11.598Z,30.19
2019-05-20T07:56:45.391Z,30.18
2019-05-20T07:59:18.123Z,29.62
2019-05-20T08:01:48.865Z,29.26
2019-05-20T08:04:19.501Z,28.69
2019-05-20T08:06:50.170Z,29.52
2019-05-20T08:09:20.913Z,29.73
2019-05-20T08:11:51.800Z,29.34
2019-05-20T08:14:25.189Z,28.61
2019-05-20T08:16:55.894Z,29.45
2019-05-20T08:19:26.486Z,29.86
2019-05-20T08:22:00.217Z,30.02
2019-05-20T08:24:30.959Z,30.11
2019-05-20T08:27:01.578Z,30.12
2019-05-20T08:29:32.203Z,30.29
2019-05-20T08:32:02.832Z,30.07
2019-05-20T08:34:33.854Z,30.24
2019-05-20T08:37:07.751Z,30.17
2019-05-20T08:39:42.776Z,30.83
2019-05-20T08:42:15.984Z,30.93
2019-05-20T08:44:49.301Z,30.65
2019-05-20T08:47:20.016Z,30.86
2019-05-20T08:49:50.863Z,30.09
2019-05-20T08:52:24.095Z,29.52
2019-05-20T08:55:00.230Z,29.69
2019-05-20T08:57:30.882Z,28.83
2019-05-20T09:00:01.632Z,28.94
2019-05-20T09:02:32.513Z,28.98
2019-05-20T09:05:03.114Z,28.84
2019-05-20T09:07:37.823Z,28.49
2019-05-20T09:10:09.312Z,28.76
2019-05-20T09:12:39.951Z,28.72
2019-05-20T09:15:11.233Z,29.08
2019-05-20T09:17:41.860Z,29.43
2019-05-20T09:20:13.273Z,30.02
2019-05-20T09:22:43.904Z,30.12
2019-05-20T09:25:18.896Z,29.78
2019-05-20T09:27:49.591Z,29.84
2019-05-20T09:30:20.282Z,29.06
2019-05-20T09:32:51.117Z,29.48
2019-05-20T09:35:21.860Z,28.89
2019-05-20T09:37:52.534Z,29.52
2019-05-20T09:40:44.423Z,29.63
2019-05-20T09:43:15.129Z,30.14
2019-05-20T09:45:46.233Z,30.27
2019-05-20T09:48:19.513Z,29.72
2019-05-20T09:50:50.351Z,28.87
2019-05-20T09:53:21.112Z,27.98
2019-05-20T09:55:53.094Z,29.23
2019-05-20T09:58:24.103Z,29.61
2019-05-20T10:00:54.741Z,29.29
2019-05-20T10:03:25.452Z,29.28
2019-05-20T10:05:59.105Z,29.37
2019-05-20T10:08:39.028Z,29.92
2019-05-20T10:11:03.689Z,29.86
2019-05-20T10:13:34.562Z,30.12
2019-05-20T10:16:05.185Z,30.82
2019-05-20T10:18:39.462Z,30.24
2019-05-20T10:21:11.940Z,28.72
2019-05-20T10:23:42.659Z,28.45
2019-05-20T10:26:17.533Z,28.36
2019-05-20T10:28:48.155Z,28.19
2019-05-20T10:31:20.299Z,28.20
2019-05-20T10:33:51.533Z,27.43
2019-05-20T10:36:22.224Z,27.91
2019-05-20T10:38:59.051Z,27.72
2019-05-20T10:41:29.217Z,27.99
2019-05-20T10:43:59.651Z,27.95
2019-05-20T10:46:31.818Z,28.15
2019-05-20T10:49:02.552Z,27.85
2019-05-20T10:51:33.331Z,28.04
2019-05-20T10:54:04.015Z,27.55
2019-05-20T10:56:34.718Z,27.82
2019-05-20T10:59:05.367Z,27.52
2019-05-20T11:01:36.044Z,28.24
2019-05-20T11:04:08.251Z,27.60
2019-05-20T11:06:39.146Z,27.50
2019-05-20T11:09:14.090Z,27.09
2019-05-20T11:11:46.613Z,27.48
2019-05-20T11:14:17.331Z,27.28
2019-05-20T11:16:47.935Z,27.09
2019-05-20T11:19:18.618Z,27.49
2019-05-20T11:21:51.703Z,27.22
2019-05-20T11:24:22.453Z,27.07
2019-05-20T11:26:54.850Z,27.33
2019-05-20T11:29:25.511Z,27.10
2019-05-20T11:31:56.298Z,27.17
2019-05-20T11:34:26.997Z,25.96
2019-05-20T11:37:01.683Z,24.73
2019-05-20T11:39:34.237Z,25.66
2019-05-20T11:42:06.831Z,25.87
2019-05-20T11:44:48.460Z,26.02
2019-05-20T11:47:21.963Z,26.40
2019-05-20T11:49:52.591Z,26.40
2019-05-20T11:52:23.207Z,26.64
2019-05-20T11:54:55.535Z,26.39
2019-05-20T11:57:26.321Z,25.95
2019-05-20T11:59:56.991Z,26.07
2019-05-20T12:02:27.948Z,26.46
2019-05-20T12:04:58.633Z,26.57
2019-05-20T12:07:31.221Z,26.64
2019-05-20T12:10:01.846Z,26.56
2019-05-20T12:12:32.707Z,26.56
2019-05-20T12:15:05.504Z,27.11
2019-05-20T12:17:36.897Z,27.37
2019-05-20T12:20:11.826Z,26.69
2019-05-20T12:22:41.592Z,26.78
2019-05-20T12:25:15.620Z,26.58
2019-05-20T12:27:46.203Z,26.24
2019-05-20T12:30:19.708Z,26.31
2019-05-20T12:32:50.331Z,26.37
2019-05-20T12:35:20.981Z,26.45
2019-05-20T12:37:51.583Z,26.32
2019-05-20T12:40:22.900Z,26.48
2019-05-20T12:42:53.527Z,26.22
2019-05-20T12:45:25.756Z,26.47
2019-05-20T12:47:58.088Z,26.72
2019-05-20T12:50:28.778Z,26.38
2019-05-20T12:52:59.352Z,26.28
2019-05-20T12:55:29.991Z,25.83
2019-05-20T12:58:00.792Z,26.43
2019-05-20T13:00:31.398Z,26.95
2019-05-20T13:03:02.284Z,27.23
2019-05-20T13:05:32.903Z,27.07
2019-05-20T13:08:06.828Z,26.64
2019-05-20T13:10:37.572Z,27.25
2019-05-20T13:13:09.769Z,26.54
2019-05-20T13:15:40.371Z,26.77
2019-05-20T13:18:11.270Z,26.72
2019-05-20T13:20:42.000Z,26.72
2019-05-20T13:23:14.942Z,26.32
2019-05-20T13:25:46.734Z,26.97
2019-05-20T13:28:20.514Z,26.80
2019-05-20T13:30:51.274Z,26.69
2019-05-20T13:33:22.359Z,26.71
2019-05-20T13:35:54.661Z,26.68
2019-05-20T13:38:25.242Z,26.60
2019-05-20T13:40:55.885Z,26.72
2019-05-20T13:43:26.608Z,26.85
2019-05-20T13:45:59.214Z,27.04
2019-05-20T13:48:29.866Z,26.77
2019-05-20T13:51:01.089Z,26.30
2019-05-20T13:53:32.719Z,26.55
2019-05-20T13:56:05.605Z,26.65
2019-05-20T13:58:35.716Z,27.24
2019-05-20T14:01:09.711Z,26.85
2019-05-20T14:03:50.723Z,27.14
2019-05-20T14:06:21.618Z,26.69
2019-05-20T14:08:52.416Z,26.71
2019-05-20T14:11:34.194Z,27.52
2019-05-20T14:13:57.055Z,26.55
2019-05-20T14:16:30.330Z,27.11
2019-05-20T14:19:01.018Z,27.15
2019-05-20T14:21:33.270Z,27.22
2019-05-20T14:24:05.234Z,26.73
2019-05-20T14:26:36.265Z,26.73
2019-05-20T14:29:06.977Z,27.10
2019-05-20T14:31:38.501Z,27.05
2019-05-20T14:34:09.490Z,26.84
2019-05-20T14:36:40.598Z,26.60
2019-05-20T14:39:11.312Z,27.10
2019-05-20T14:41:43.448Z,27.28
2019-05-20T14:44:18.459Z,27.43
2019-05-20T14:46:49.784Z,27.04
2019-05-20T14:49:20.595Z,27.25
2019-05-20T14:51:55.923Z,27.19
2019-05-20T14:54:27.229Z,27.53
2019-05-20T14:57:02.370Z,27.19
2019-05-20T14:59:40.507Z,27.62
2019-05-20T15:02:11.589Z,28.09
2019-05-20T15:04:42.558Z,27.71
2019-05-20T15:07:13.201Z,27.27
2019-05-20T15:09:45.392Z,27.84
2019-05-20T15:12:19.767Z,27.59
2019-05-20T15:14:54.239Z,27.86
2019-05-20T15:17:26.598Z,27.62
2019-05-20T15:19:57.501Z,27.88
2019-05-20T15:22:29.204Z,27.46
2019-05-20T15:25:01.822Z,27.42
2019-05-20T15:27:34.768Z,27.52
2019-05-20T15:30:10.212Z,27.71
2019-05-20T15:32:40.969Z,27.97
2019-05-20T15:35:13.280Z,28.36
2019-05-20T15:37:43.885Z,28.63
2019-05-20T15:40:18.025Z,28.87
2019-05-20T15:42:48.596Z,28.98
2019-05-20T15:45:19.434Z,29.47
2019-05-20T15:47:50.678Z,28.97
2019-05-20T15:50:22.061Z,28.29
2019-05-20T15:52:52.721Z,28.52
2019-05-20T15:55:27.546Z,29.42
2019-05-20T15:57:58.444Z,29.42
2019-05-20T16:00:29.308Z,30.38
2019-05-20T16:02:59.948Z,30.38
2019-05-20T16:05:32.882Z,30.37
2019-05-20T16:08:04.148Z,31.17
2019-05-20T16:10:35.246Z,31.17
2019-05-20T16:13:05.869Z,31.36
2019-05-20T16:15:37.358Z,31.62
2019-05-20T16:18:08.386Z,31.58
2019-05-20T16:20:45.170Z,31.75
2019-05-20T16:23:16.006Z,31.74
2019-05-20T16:25:50.951Z,31.97
2019-05-20T16:28:24.451Z,32.12
2019-05-20T16:30:55.110Z,31.78
2019-05-20T16:33:26.075Z,32.15
2019-05-20T16:35:56.777Z,32.17
2019-05-20T16:38:31.149Z,32.53
2019-05-20T16:41:01.783Z,32.27
2019-05-20T16:43:32.380Z,32.50
2019-05-20T16:46:03.106Z,32.58
2019-05-20T16:48:37.279Z,32.60
2019-05-20T16:51:07.927Z,32.84
2019-05-20T16:53:40.122Z,33.11
2019-05-20T16:56:12.281Z,32.79
2019-05-20T16:58:43.231Z,33.05
2019-05-20T17:01:15.767Z,33.40
2019-05-20T17:03:46.719Z,33.37
2019-05-20T17:06:19.102Z,33.54
2019-05-20T17:08:56.210Z,33.80
2019-05-20T17:11:30.028Z,33.79
2019-05-20T17:14:00.861Z,33.81
2019-05-20T17:16:35.035Z,34.13
2019-05-20T17:19:06.697Z,34.36
2019-05-20T17:21:39.769Z,34.59
2019-05-20T17:24:12.639Z,34.94
2019-05-20T17:26:43.590Z,35.17
2019-05-20T17:29:16.494Z,35.28
2019-05-20T17:31:47.513Z,35.26
2019-05-20T17:34:18.507Z,35.16
2019-05-20T17:36:49.290Z,35.45
2019-05-20T17:39:19.974Z,35.73
2019-05-20T17:41:50.570Z,35.73
2019-05-20T17:44:21.498Z,35.74
2019-05-20T17:46:52.237Z,36.11
2019-05-20T17:49:22.871Z,35.96
2019-05-20T17:51:53.473Z,36.29
2019-05-20T17:54:25.231Z,36.70
2019-05-20T17:56:57.541Z,36.97
2019-05-20T17:59:31.612Z,36.81
2019-05-20T18:02:02.342Z,36.65
2019-05-20T18:04:33.591Z,36.80
2019-05-20T18:07:05.198Z,36.74
2019-05-20T18:09:39.460Z,36.43
2019-05-20T18:12:10.845Z,36.69
2019-05-20T18:14:42.543Z,36.95
2019-05-20T18:17:16.598Z,37.45
2019-05-20T18:19:48.952Z,37.63
2019-05-20T18:22:19.987Z,37.45
2019-05-20T18:24:52.199Z,37.75
2019-05-20T18:27:23.700Z,38.03
2019-05-20T18:29:56.290Z,37.89
2019-05-20T18:32:27.426Z,38.23
2019-05-20T18:34:58.372Z,38.53
2019-05-20T18:37:29.304Z,38.58
2019-05-20T18:40:12.783Z,38.90
2019-05-20T18:42:33.029Z,38.78
2019-05-20T18:45:06.414Z,38.68
2019-05-20T18:47:37.248Z,38.44
2019-05-20T18:50:09.385Z,38.01
2019-05-20T18:52:40.043Z,38.21
2019-05-20T18:55:11.433Z,38.49
2019-05-20T18:57:42.233Z,37.69
2019-05-20T19:00:14.221Z,37.41
2019-05-20T19:02:45.249Z,36.91
2019-05-20T19:05:17.373Z,37.31
2019-05-20T19:07:49.165Z,37.03
2019-05-20T19:10:20.419Z,37.42
2019-05-20T19:12:51.721Z,37.67
2019-05-20T19:15:23.000Z,38.00
2019-05-20T19:17:55.688Z,38.08
2019-05-20T19:20:26.862Z,38.24
2019-05-20T19:22:57.977Z,38.52
2019-05-20T19:25:37.309Z,38.57
2019-05-20T19:28:01.480Z,38.73
2019-05-20T19:30:32.530Z,39.28
2019-05-20T19:33:04.314Z,39.74
2019-05-20T19:35:35.020Z,39.92
2019-05-20T19:38:06.101Z,39.78
2019-05-20T19:40:36.907Z,40.23
2019-05-20T19:43:08.034Z,40.13
2019-05-20T19:45:39.280Z,40.34
2019-05-20T19:48:10.434Z,39.69
2019-05-20T19:50:41.320Z,39.68
2019-05-20T19:53:12.079Z,39.74
2019-05-20T19:55:44.169Z,39.81
2019-05-20T19:58:15.216Z,39.51
2019-05-20T20:00:46.261Z,39.63
2019-05-20T20:03:17.394Z,39.65
2019-05-20T20:05:48.537Z,40.18
2019-05-20T20:08:19.499Z,40.13
2019-05-20T20:10:50.513Z,40.42
2019-05-20T20:13:23.808Z,40.50
2019-05-20T20:15:54.945Z,40.28
2019-05-20T20:18:25.984Z,40.09
2019-05-20T20:20:57.145Z,40.18
2019-05-20T20:23:29.606Z,40.02
2019-05-20T20:26:02.365Z,40.14
2019-05-20T20:28:33.151Z,40.31
2019-05-20T20:31:04.163Z,40.50
2019-05-20T20:33:35.249Z,40.94
2019-05-20T20:36:06.459Z,40.51
2019-05-20T20:38:39.361Z,40.77
2019-05-20T20:41:10.260Z,40.87
2019-05-20T20:43:41.440Z,40.99
2019-05-20T20:46:12.355Z,40.61
2019-05-20T20:48:43.400Z,40.79
2019-05-20T20:51:14.447Z,40.70
2019-05-20T20:53:45.372Z,40.79
2019-05-20T20:56:24.594Z,40.97
2019-05-20T20:58:52.475Z,41.22
2019-05-20T21:01:23.772Z,41.62
2019-05-20T21:03:54.755Z,41.36
2019-05-20T21:06:29.649Z,41.35
2019-05-20T21:09:00.326Z,41.58
2019-05-20T21:11:31.578Z,41.61
2019-05-20T21:14:04.686Z,41.90
2019-05-20T21:16:37.645Z,41.87
2019-05-20T21:19:08.798Z,41.91
2019-05-20T21:21:39.730Z,42.40
2019-05-20T21:24:12.920Z,42.16
2019-05-20T21:26:44.574Z,42.53
2019-05-20T21:29:15.719Z,42.65
2019-05-20T21:31:46.898Z,42.94
2019-05-20T21:34:31.350Z,43.18
2019-05-20T21:37:02.555Z,42.98
2019-05-20T21:39:33.496Z,43.25
2019-05-20T21:42:04.544Z,43.54
2019-05-20T21:44:37.148Z,43.69
2019-05-20T21:47:08.151Z,43.75
2019-05-20T21:49:39.194Z,44.00
2019-05-20T21:52:10.800Z,44.28
2019-05-20T21:54:42.611Z,44.12
2019-05-20T21:57:18.711Z,44.03
2019-05-20T21:59:51.224Z,44.21
2019-05-20T22:02:26.689Z,44.55
2019-05-20T22:05:03.050Z,44.70
2019-05-20T22:07:35.682Z,44.72
2019-05-20T22:10:08.519Z,45.00
2019-05-20T22:12:42.428Z,44.76
2019-05-20T22:15:15.201Z,45.10
2019-05-20T22:17:47.479Z,44.94
2019-05-20T22:20:21.998Z,45.14
2019-05-20T22:23:06.760Z,45.09
2019-05-20T22:25:38.725Z,45.13
2019-05-20T22:28:12.744Z,44.93
2019-05-20T22:30:42.939Z,44.86
2019-05-20T22:33:17.480Z,45.19
2019-05-20T22:35:49.139Z,45.18
2019-05-20T22:38:21.817Z,45.25
2019-05-20T22:40:55.047Z,45.66
2019-05-20T22:43:25.746Z,45.48
2019-05-20T22:45:57.287Z,45.53
2019-05-20T22:48:29.662Z,45.54
2019-05-20T22:51:00.398Z,45.92
2019-05-20T22:53:31.613Z,46.20
2019-05-20T22:56:05.777Z,46.17
2019-05-20T22:58:38.626Z,46.34
2019-05-20T23:01:09.444Z,46.13
2019-05-20T23:03:54.355Z,46.15
2019-05-20T23:06:13.194Z,46.44
2019-05-20T23:08:44.058Z,46.33
2019-05-20T23:11:15.282Z,46.54
2019-05-20T23:13:50.513Z,46.83
2019-05-20T23:16:23.242Z,47.00
2019-05-20T23:18:54.358Z,47.10
2019-05-20T23:21:25.696Z,46.89
2019-05-20T23:23:56.829Z,46.95
2019-05-20T23:26:27.764Z,46.96
2019-05-20T23:28:58.951Z,47.11
2019-05-20T23:31:31.284Z,46.77
2019-05-20T23:34:12.919Z,47.14
2019-05-20T23:36:40.657Z,47.38
2019-05-20T23:39:11.843Z,47.26
2019-05-20T23:41:51.049Z,47.37
2019-05-20T23:44:22.070Z,47.53
2019-05-20T23:46:56.189Z,47.33
2019-05-20T23:49:27.008Z,47.31
2019-05-20T23:51:58.200Z,47.25
2019-05-20T23:54:30.858Z,47.07
2019-05-20T23:57:01.760Z,47.14
2019-05-20T23:59:32.911Z,47.38
